sensor_id;sensor_type;location;lat;lon;timestamp;temperature;humidity
4245;DHT22;2136;48.502;9.194;2024-02-26T00:01:51;9.90;45.80
4245;DHT22;2136;48.502;9.194;2024-02-26T00:04:18;9.90;45.70
4245;DHT22;2136;48.502;9.194;2024-02-26T00:06:44;9.90;45.80
4245;DHT22;2136;48.502;9.194;2024-02-26T00:09:11;9.80;46.80
4245;DHT22;2136;48.502;9.194;2024-02-26T00:11:38;9.80;46.00
4245;DHT22;2136;48.502;9.194;2024-02-26T00:14:05;9.90;46.20
4245;DHT22;2136;48.502;9.194;2024-02-26T00:16:32;9.80;46.00
4245;DHT22;2136;48.502;9.194;2024-02-26T00:19:00;9.90;46.00
4245;DHT22;2136;48.502;9.194;2024-02-26T00:21:28;9.90;46.00
4245;DHT22;2136;48.502;9.194;2024-02-26T00:23:55;9.90;46.00
4245;DHT22;2136;48.502;9.194;2024-02-26T00:26:21;9.80;46.00
4245;DHT22;2136;48.502;9.194;2024-02-26T00:28:48;9.80;46.10
4245;DHT22;2136;48.502;9.194;2024-02-26T00:31:16;9.80;46.10
4245;DHT22;2136;48.502;9.194;2024-02-26T00:33:43;9.90;46.00
4245;DHT22;2136;48.502;9.194;2024-02-26T00:36:11;9.90;46.10
4245;DHT22;2136;48.502;9.194;2024-02-26T00:38:38;10.00;44.90
4245;DHT22;2136;48.502;9.194;2024-02-26T00:41:05;9.90;45.60
4245;DHT22;2136;48.502;9.194;2024-02-26T00:43:32;10.00;44.60
4245;DHT22;2136;48.502;9.194;2024-02-26T00:45:59;10.00;44.30
4245;DHT22;2136;48.502;9.194;2024-02-26T00:48:26;10.00;44.20
4245;DHT22;2136;48.502;9.194;2024-02-26T00:50:53;10.00;44.10
4245;DHT22;2136;48.502;9.194;2024-02-26T00:53:21;10.00;44.30
4245;DHT22;2136;48.502;9.194;2024-02-26T00:55:48;10.00;44.40
4245;DHT22;2136;48.502;9.194;2024-02-26T00:58:14;10.00;44.30
4245;DHT22;2136;48.502;9.194;2024-02-26T01:00:42;10.10;44.70
4245;DHT22;2136;48.502;9.194;2024-02-26T01:03:08;10.10;44.70
4245;DHT22;2136;48.502;9.194;2024-02-26T01:05:36;10.00;44.60
4245;DHT22;2136;48.502;9.194;2024-02-26T01:08:03;10.00;44.80
4245;DHT22;2136;48.502;9.194;2024-02-26T01:10:32;10.00;44.80
4245;DHT22;2136;48.502;9.194;2024-02-26T01:12:59;9.90;45.90
4245;DHT22;2136;48.502;9.194;2024-02-26T01:15:26;10.00;45.10
4245;DHT22;2136;48.502;9.194;2024-02-26T01:17:53;10.00;44.90
4245;DHT22;2136;48.502;9.194;2024-02-26T01:20:20;10.10;44.80
4245;DHT22;2136;48.502;9.194;2024-02-26T01:22:47;10.10;45.00
4245;DHT22;2136;48.502;9.194;2024-02-26T01:25:14;10.00;45.00
4245;DHT22;2136;48.502;9.194;2024-02-26T01:27:42;10.00;45.10
4245;DHT22;2136;48.502;9.194;2024-02-26T01:30:10;10.00;45.10
4245;DHT22;2136;48.502;9.194;2024-02-26T01:32:37;10.00;45.30
4245;DHT22;2136;48.502;9.194;2024-02-26T01:35:04;10.00;45.10
4245;DHT22;2136;48.502;9.194;2024-02-26T01:37:33;10.00;44.90
4245;DHT22;2136;48.502;9.194;2024-02-26T01:39:59;10.00;44.50
4245;DHT22;2136;48.502;9.194;2024-02-26T01:42:29;10.00;44.50
4245;DHT22;2136;48.502;9.194;2024-02-26T01:44:57;10.10;44.80
4245;DHT22;2136;48.502;9.194;2024-02-26T01:47:25;10.10;46.30
4245;DHT22;2136;48.502;9.194;2024-02-26T01:49:53;10.10;47.70
4245;DHT22;2136;48.502;9.194;2024-02-26T01:52:21;10.10;48.90
4245;DHT22;2136;48.502;9.194;2024-02-26T01:54:48;10.10;49.50
4245;DHT22;2136;48.502;9.194;2024-02-26T01:57:16;10.10;50.10
4245;DHT22;2136;48.502;9.194;2024-02-26T01:59:43;10.20;50.10
4245;DHT22;2136;48.502;9.194;2024-02-26T02:02:11;10.30;49.60
4245;DHT22;2136;48.502;9.194;2024-02-26T02:04:39;10.30;49.60
4245;DHT22;2136;48.502;9.194;2024-02-26T02:07:06;10.20;49.30
4245;DHT22;2136;48.502;9.194;2024-02-26T02:09:33;10.20;50.00
4245;DHT22;2136;48.502;9.194;2024-02-26T02:12:00;10.20;50.70
4245;DHT22;2136;48.502;9.194;2024-02-26T02:14:27;10.20;50.70
4245;DHT22;2136;48.502;9.194;2024-02-26T02:16:54;10.20;50.40
4245;DHT22;2136;48.502;9.194;2024-02-26T02:19:22;10.20;50.50
4245;DHT22;2136;48.502;9.194;2024-02-26T02:21:50;10.10;50.50
4245;DHT22;2136;48.502;9.194;2024-02-26T02:24:17;10.10;51.70
4245;DHT22;2136;48.502;9.194;2024-02-26T02:26:44;10.00;51.30
4245;DHT22;2136;48.502;9.194;2024-02-26T02:29:11;10.00;51.80
4245;DHT22;2136;48.502;9.194;2024-02-26T02:31:38;10.00;51.80
4245;DHT22;2136;48.502;9.194;2024-02-26T02:34:05;9.90;52.20
4245;DHT22;2136;48.502;9.194;2024-02-26T02:36:32;9.90;51.40
4245;DHT22;2136;48.502;9.194;2024-02-26T02:39:00;9.90;51.60
4245;DHT22;2136;48.502;9.194;2024-02-26T02:41:28;9.90;52.10
4245;DHT22;2136;48.502;9.194;2024-02-26T02:43:55;9.90;52.30
4245;DHT22;2136;48.502;9.194;2024-02-26T02:46:23;9.90;52.90
4245;DHT22;2136;48.502;9.194;2024-02-26T02:48:49;9.90;52.50
4245;DHT22;2136;48.502;9.194;2024-02-26T02:51:16;9.90;52.50
4245;DHT22;2136;48.502;9.194;2024-02-26T02:53:43;9.90;52.90
4245;DHT22;2136;48.502;9.194;2024-02-26T02:56:11;9.90;53.20
4245;DHT22;2136;48.502;9.194;2024-02-26T02:58:38;9.90;52.90
4245;DHT22;2136;48.502;9.194;2024-02-26T03:01:05;9.90;52.20
4245;DHT22;2136;48.502;9.194;2024-02-26T03:03:32;9.90;52.00
4245;DHT22;2136;48.502;9.194;2024-02-26T03:05:59;9.90;52.00
4245;DHT22;2136;48.502;9.194;2024-02-26T03:08:25;9.90;52.00
4245;DHT22;2136;48.502;9.194;2024-02-26T03:10:52;9.80;52.50
4245;DHT22;2136;48.502;9.194;2024-02-26T03:13:20;9.90;53.30
4245;DHT22;2136;48.502;9.194;2024-02-26T03:15:47;9.80;53.40
4245;DHT22;2136;48.502;9.194;2024-02-26T03:18:14;9.90;53.20
4245;DHT22;2136;48.502;9.194;2024-02-26T03:20:41;9.90;52.80
4245;DHT22;2136;48.502;9.194;2024-02-26T03:23:07;9.90;52.60
4245;DHT22;2136;48.502;9.194;2024-02-26T03:25:38;9.90;53.00
4245;DHT22;2136;48.502;9.194;2024-02-26T03:28:05;9.90;53.00
4245;DHT22;2136;48.502;9.194;2024-02-26T03:30:34;9.80;53.30
4245;DHT22;2136;48.502;9.194;2024-02-26T03:33:01;9.80;53.30
4245;DHT22;2136;48.502;9.194;2024-02-26T03:35:28;9.80;53.40
4245;DHT22;2136;48.502;9.194;2024-02-26T03:37:54;9.80;53.70
4245;DHT22;2136;48.502;9.194;2024-02-26T03:40:21;9.80;53.40
4245;DHT22;2136;48.502;9.194;2024-02-26T03:42:48;9.80;53.50
4245;DHT22;2136;48.502;9.194;2024-02-26T03:45:15;9.80;53.70
4245;DHT22;2136;48.502;9.194;2024-02-26T03:47:43;9.80;53.70
4245;DHT22;2136;48.502;9.194;2024-02-26T03:50:10;9.80;53.40
4245;DHT22;2136;48.502;9.194;2024-02-26T03:52:37;9.80;53.50
4245;DHT22;2136;48.502;9.194;2024-02-26T03:55:04;9.80;53.30
4245;DHT22;2136;48.502;9.194;2024-02-26T03:57:31;9.80;53.30
4245;DHT22;2136;48.502;9.194;2024-02-26T03:59:58;9.80;53.00
4245;DHT22;2136;48.502;9.194;2024-02-26T04:02:25;9.80;53.00
4245;DHT22;2136;48.502;9.194;2024-02-26T04:04:53;9.70;53.20
4245;DHT22;2136;48.502;9.194;2024-02-26T04:07:20;9.70;53.80
4245;DHT22;2136;48.502;9.194;2024-02-26T04:09:47;9.80;54.10
4245;DHT22;2136;48.502;9.194;2024-02-26T04:12:14;9.70;54.20
4245;DHT22;2136;48.502;9.194;2024-02-26T04:14:40;9.80;54.30
4245;DHT22;2136;48.502;9.194;2024-02-26T04:17:07;9.70;54.30
4245;DHT22;2136;48.502;9.194;2024-02-26T04:19:34;9.70;54.50
4245;DHT22;2136;48.502;9.194;2024-02-26T04:22:02;9.70;54.90
4245;DHT22;2136;48.502;9.194;2024-02-26T04:24:29;9.70;55.20
4245;DHT22;2136;48.502;9.194;2024-02-26T04:26:56;9.60;55.30
4245;DHT22;2136;48.502;9.194;2024-02-26T04:29:23;9.60;55.30
4245;DHT22;2136;48.502;9.194;2024-02-26T04:31:50;9.60;55.80
4245;DHT22;2136;48.502;9.194;2024-02-26T04:34:17;9.70;55.70
4245;DHT22;2136;48.502;9.194;2024-02-26T04:36:43;9.70;55.40
4245;DHT22;2136;48.502;9.194;2024-02-26T04:39:12;9.70;54.90
4245;DHT22;2136;48.502;9.194;2024-02-26T04:41:38;9.90;54.20
4245;DHT22;2136;48.502;9.194;2024-02-26T04:44:05;9.70;53.20
4245;DHT22;2136;48.502;9.194;2024-02-26T04:46:32;9.70;52.60
4245;DHT22;2136;48.502;9.194;2024-02-26T04:48:59;9.80;52.30
4245;DHT22;2136;48.502;9.194;2024-02-26T04:51:26;9.70;52.30
4245;DHT22;2136;48.502;9.194;2024-02-26T04:53:54;9.70;52.10
4245;DHT22;2136;48.502;9.194;2024-02-26T04:56:23;9.80;51.70
4245;DHT22;2136;48.502;9.194;2024-02-26T04:58:50;9.80;51.30
4245;DHT22;2136;48.502;9.194;2024-02-26T05:01:17;9.80;51.70
4245;DHT22;2136;48.502;9.194;2024-02-26T05:03:44;9.80;51.80
4245;DHT22;2136;48.502;9.194;2024-02-26T05:06:11;9.90;51.30
4245;DHT22;2136;48.502;9.194;2024-02-26T05:08:39;9.90;51.10
4245;DHT22;2136;48.502;9.194;2024-02-26T05:11:06;9.90;51.80
4245;DHT22;2136;48.502;9.194;2024-02-26T05:13:36;9.90;52.60
4245;DHT22;2136;48.502;9.194;2024-02-26T05:16:05;10.00;52.20
4245;DHT22;2136;48.502;9.194;2024-02-26T05:18:33;10.00;52.10
4245;DHT22;2136;48.502;9.194;2024-02-26T05:21:01;9.90;52.70
4245;DHT22;2136;48.502;9.194;2024-02-26T05:23:29;9.90;52.80
4245;DHT22;2136;48.502;9.194;2024-02-26T05:25:56;9.90;52.90
4245;DHT22;2136;48.502;9.194;2024-02-26T05:28:24;9.80;53.20
4245;DHT22;2136;48.502;9.194;2024-02-26T05:30:54;9.80;54.20
4245;DHT22;2136;48.502;9.194;2024-02-26T05:33:22;9.80;55.00
4245;DHT22;2136;48.502;9.194;2024-02-26T05:35:51;9.70;55.40
4245;DHT22;2136;48.502;9.194;2024-02-26T05:38:20;9.70;55.60
4245;DHT22;2136;48.502;9.194;2024-02-26T05:40:47;9.70;56.00
4245;DHT22;2136;48.502;9.194;2024-02-26T05:43:19;9.60;55.80
4245;DHT22;2136;48.502;9.194;2024-02-26T05:45:46;9.60;55.90
4245;DHT22;2136;48.502;9.194;2024-02-26T05:48:15;9.60;56.10
4245;DHT22;2136;48.502;9.194;2024-02-26T05:50:42;9.50;56.70
4245;DHT22;2136;48.502;9.194;2024-02-26T05:53:11;9.50;57.00
4245;DHT22;2136;48.502;9.194;2024-02-26T05:55:39;9.40;57.20
4245;DHT22;2136;48.502;9.194;2024-02-26T05:58:06;9.40;57.70
4245;DHT22;2136;48.502;9.194;2024-02-26T06:00:37;9.30;57.60
4245;DHT22;2136;48.502;9.194;2024-02-26T06:03:07;9.30;57.60
4245;DHT22;2136;48.502;9.194;2024-02-26T06:05:37;9.20;57.60
4245;DHT22;2136;48.502;9.194;2024-02-26T06:08:05;9.20;57.70
4245;DHT22;2136;48.502;9.194;2024-02-26T06:10:34;9.20;57.80
4245;DHT22;2136;48.502;9.194;2024-02-26T06:13:05;9.20;57.80
4245;DHT22;2136;48.502;9.194;2024-02-26T06:15:34;9.10;58.00
4245;DHT22;2136;48.502;9.194;2024-02-26T06:18:01;9.10;58.50
4245;DHT22;2136;48.502;9.194;2024-02-26T06:20:29;9.10;58.80
4245;DHT22;2136;48.502;9.194;2024-02-26T06:23:00;9.00;58.90
4245;DHT22;2136;48.502;9.194;2024-02-26T06:25:27;9.00;58.70
4245;DHT22;2136;48.502;9.194;2024-02-26T06:27:56;9.00;58.50
4245;DHT22;2136;48.502;9.194;2024-02-26T06:30:25;9.00;58.50
4245;DHT22;2136;48.502;9.194;2024-02-26T06:32:53;8.90;58.60
4245;DHT22;2136;48.502;9.194;2024-02-26T06:35:21;8.90;58.70
4245;DHT22;2136;48.502;9.194;2024-02-26T06:37:49;8.90;58.60
4245;DHT22;2136;48.502;9.194;2024-02-26T06:40:20;8.90;58.50
4245;DHT22;2136;48.502;9.194;2024-02-26T06:42:47;8.90;58.40
4245;DHT22;2136;48.502;9.194;2024-02-26T06:45:18;9.00;58.60
4245;DHT22;2136;48.502;9.194;2024-02-26T06:47:46;9.00;58.50
4245;DHT22;2136;48.502;9.194;2024-02-26T06:50:18;9.00;58.30
4245;DHT22;2136;48.502;9.194;2024-02-26T06:52:46;9.00;58.20
4245;DHT22;2136;48.502;9.194;2024-02-26T06:55:15;9.00;58.40
4245;DHT22;2136;48.502;9.194;2024-02-26T06:57:46;9.10;58.60
4245;DHT22;2136;48.502;9.194;2024-02-26T07:00:14;9.20;58.50
4245;DHT22;2136;48.502;9.194;2024-02-26T07:02:43;9.20;58.50
4245;DHT22;2136;48.502;9.194;2024-02-26T07:05:12;9.30;58.50
4245;DHT22;2136;48.502;9.194;2024-02-26T07:07:41;9.40;58.30
4245;DHT22;2136;48.502;9.194;2024-02-26T07:10:17;9.40;58.40
4245;DHT22;2136;48.502;9.194;2024-02-26T07:12:46;9.50;58.40
4245;DHT22;2136;48.502;9.194;2024-02-26T07:15:15;9.60;58.30
4245;DHT22;2136;48.502;9.194;2024-02-26T07:17:42;9.60;58.10
4245;DHT22;2136;48.502;9.194;2024-02-26T07:20:12;9.70;58.00
4245;DHT22;2136;48.502;9.194;2024-02-26T07:22:40;9.70;58.00
4245;DHT22;2136;48.502;9.194;2024-02-26T07:25:08;9.70;57.60
4245;DHT22;2136;48.502;9.194;2024-02-26T07:27:38;9.70;57.80
4245;DHT22;2136;48.502;9.194;2024-02-26T07:30:08;9.80;58.10
4245;DHT22;2136;48.502;9.194;2024-02-26T07:32:35;9.90;58.50
4245;DHT22;2136;48.502;9.194;2024-02-26T07:35:02;9.90;58.30
4245;DHT22;2136;48.502;9.194;2024-02-26T07:37:29;9.90;58.00
4245;DHT22;2136;48.502;9.194;2024-02-26T07:39:56;10.00;57.00
4245;DHT22;2136;48.502;9.194;2024-02-26T07:42:22;10.00;56.80
4245;DHT22;2136;48.502;9.194;2024-02-26T07:44:49;10.10;56.70
4245;DHT22;2136;48.502;9.194;2024-02-26T07:47:17;10.10;56.50
4245;DHT22;2136;48.502;9.194;2024-02-26T07:49:44;10.10;56.50
4245;DHT22;2136;48.502;9.194;2024-02-26T07:52:11;10.20;56.90
4245;DHT22;2136;48.502;9.194;2024-02-26T07:54:38;10.10;56.80
4245;DHT22;2136;48.502;9.194;2024-02-26T07:57:05;10.10;57.00
4245;DHT22;2136;48.502;9.194;2024-02-26T07:59:32;10.30;57.00
4245;DHT22;2136;48.502;9.194;2024-02-26T08:01:59;10.10;56.50
4245;DHT22;2136;48.502;9.194;2024-02-26T08:04:29;10.20;56.50
4245;DHT22;2136;48.502;9.194;2024-02-26T08:06:56;10.20;56.50
4245;DHT22;2136;48.502;9.194;2024-02-26T08:09:23;10.30;56.70
4245;DHT22;2136;48.502;9.194;2024-02-26T08:11:50;10.40;56.60
4245;DHT22;2136;48.502;9.194;2024-02-26T08:14:17;10.50;56.20
4245;DHT22;2136;48.502;9.194;2024-02-26T08:16:43;10.60;55.90
4245;DHT22;2136;48.502;9.194;2024-02-26T08:19:10;10.70;55.40
4245;DHT22;2136;48.502;9.194;2024-02-26T08:21:41;10.70;55.00
4245;DHT22;2136;48.502;9.194;2024-02-26T08:24:08;10.80;55.00
4245;DHT22;2136;48.502;9.194;2024-02-26T08:26:35;10.90;55.00
4245;DHT22;2136;48.502;9.194;2024-02-26T08:29:02;11.00;55.00
4245;DHT22;2136;48.502;9.194;2024-02-26T08:31:29;11.00;55.00
4245;DHT22;2136;48.502;9.194;2024-02-26T08:33:56;11.00;54.60
4245;DHT22;2136;48.502;9.194;2024-02-26T08:36:23;11.00;54.60
4245;DHT22;2136;48.502;9.194;2024-02-26T08:38:52;11.10;54.60
4245;DHT22;2136;48.502;9.194;2024-02-26T08:41:18;11.10;54.30
4245;DHT22;2136;48.502;9.194;2024-02-26T08:43:45;11.20;54.00
4245;DHT22;2136;48.502;9.194;2024-02-26T08:46:12;11.30;53.90
4245;DHT22;2136;48.502;9.194;2024-02-26T08:48:40;11.30;54.40
4245;DHT22;2136;48.502;9.194;2024-02-26T08:51:07;11.30;53.50
4245;DHT22;2136;48.502;9.194;2024-02-26T08:53:34;11.30;53.40
4245;DHT22;2136;48.502;9.194;2024-02-26T08:56:02;11.30;53.30
4245;DHT22;2136;48.502;9.194;2024-02-26T08:58:29;11.40;53.40
4245;DHT22;2136;48.502;9.194;2024-02-26T09:00:56;11.40;53.50
4245;DHT22;2136;48.502;9.194;2024-02-26T09:03:23;11.50;53.50
4245;DHT22;2136;48.502;9.194;2024-02-26T09:05:50;11.40;53.60
4245;DHT22;2136;48.502;9.194;2024-02-26T09:08:16;11.40;53.70
4245;DHT22;2136;48.502;9.194;2024-02-26T09:10:43;11.50;53.70
4245;DHT22;2136;48.502;9.194;2024-02-26T09:13:11;11.50;53.70
4245;DHT22;2136;48.502;9.194;2024-02-26T09:15:38;11.60;53.90
4245;DHT22;2136;48.502;9.194;2024-02-26T09:18:05;11.60;53.90
4245;DHT22;2136;48.502;9.194;2024-02-26T09:20:32;11.60;53.80
4245;DHT22;2136;48.502;9.194;2024-02-26T09:22:58;11.60;53.70
4245;DHT22;2136;48.502;9.194;2024-02-26T09:25:25;11.60;53.60
4245;DHT22;2136;48.502;9.194;2024-02-26T09:27:53;11.60;53.50
4245;DHT22;2136;48.502;9.194;2024-02-26T09:30:21;11.70;53.30
4245;DHT22;2136;48.502;9.194;2024-02-26T09:32:48;11.70;53.30
4245;DHT22;2136;48.502;9.194;2024-02-26T09:35:15;11.80;53.60
4245;DHT22;2136;48.502;9.194;2024-02-26T09:37:41;11.90;53.50
4245;DHT22;2136;48.502;9.194;2024-02-26T09:40:10;12.10;53.50
4245;DHT22;2136;48.502;9.194;2024-02-26T09:42:38;12.20;53.50
4245;DHT22;2136;48.502;9.194;2024-02-26T09:45:11;12.40;53.60
4245;DHT22;2136;48.502;9.194;2024-02-26T09:47:41;12.50;53.80
4245;DHT22;2136;48.502;9.194;2024-02-26T09:50:09;12.70;53.70
4245;DHT22;2136;48.502;9.194;2024-02-26T09:52:38;12.90;53.40
4245;DHT22;2136;48.502;9.194;2024-02-26T09:55:05;13.10;53.20
4245;DHT22;2136;48.502;9.194;2024-02-26T09:57:33;13.20;53.40
4245;DHT22;2136;48.502;9.194;2024-02-26T10:00:03;13.30;52.50
4245;DHT22;2136;48.502;9.194;2024-02-26T10:02:31;13.40;52.30
4245;DHT22;2136;48.502;9.194;2024-02-26T10:05:03;13.70;52.30
4245;DHT22;2136;48.502;9.194;2024-02-26T10:07:31;13.90;51.70
4245;DHT22;2136;48.502;9.194;2024-02-26T10:09:58;14.10;51.40
4245;DHT22;2136;48.502;9.194;2024-02-26T10:12:26;14.10;51.00
4245;DHT22;2136;48.502;9.194;2024-02-26T10:14:53;14.00;51.00
4245;DHT22;2136;48.502;9.194;2024-02-26T10:17:20;14.00;51.00
4245;DHT22;2136;48.502;9.194;2024-02-26T10:19:47;14.00;51.00
4245;DHT22;2136;48.502;9.194;2024-02-26T10:22:18;14.00;50.70
4245;DHT22;2136;48.502;9.194;2024-02-26T10:24:47;14.00;50.70
4245;DHT22;2136;48.502;9.194;2024-02-26T10:27:15;14.20;50.70
4245;DHT22;2136;48.502;9.194;2024-02-26T10:29:41;14.20;50.60
4245;DHT22;2136;48.502;9.194;2024-02-26T10:32:09;14.20;50.40
4245;DHT22;2136;48.502;9.194;2024-02-26T10:34:36;14.30;50.20
4245;DHT22;2136;48.502;9.194;2024-02-26T10:37:05;14.30;50.30
4245;DHT22;2136;48.502;9.194;2024-02-26T10:39:35;14.10;50.50
4245;DHT22;2136;48.502;9.194;2024-02-26T10:42:03;14.00;50.40
4245;DHT22;2136;48.502;9.194;2024-02-26T10:44:35;13.90;50.70
4245;DHT22;2136;48.502;9.194;2024-02-26T10:47:01;13.90;50.70
4245;DHT22;2136;48.502;9.194;2024-02-26T10:49:28;13.80;50.70
4245;DHT22;2136;48.502;9.194;2024-02-26T10:51:56;13.70;50.80
4245;DHT22;2136;48.502;9.194;2024-02-26T10:54:26;13.70;50.90
4245;DHT22;2136;48.502;9.194;2024-02-26T10:56:56;13.80;51.20
4245;DHT22;2136;48.502;9.194;2024-02-26T10:59:24;13.90;51.40
4245;DHT22;2136;48.502;9.194;2024-02-26T11:01:51;14.00;51.30
4245;DHT22;2136;48.502;9.194;2024-02-26T11:04:18;14.00;51.50
4245;DHT22;2136;48.502;9.194;2024-02-26T11:06:45;14.10;51.50
4245;DHT22;2136;48.502;9.194;2024-02-26T11:09:14;14.10;52.00
4245;DHT22;2136;48.502;9.194;2024-02-26T11:11:41;14.20;51.40
4245;DHT22;2136;48.502;9.194;2024-02-26T11:14:10;14.20;51.20
4245;DHT22;2136;48.502;9.194;2024-02-26T11:16:39;14.30;51.30
4245;DHT22;2136;48.502;9.194;2024-02-26T11:19:08;14.30;51.00
4245;DHT22;2136;48.502;9.194;2024-02-26T11:21:36;14.40;51.30
4245;DHT22;2136;48.502;9.194;2024-02-26T11:24:08;14.50;51.30
4245;DHT22;2136;48.502;9.194;2024-02-26T11:26:41;14.70;51.30
4245;DHT22;2136;48.502;9.194;2024-02-26T11:29:12;15.00;51.00
4245;DHT22;2136;48.502;9.194;2024-02-26T11:31:40;15.20;50.80
4245;DHT22;2136;48.502;9.194;2024-02-26T11:34:09;15.30;50.40
4245;DHT22;2136;48.502;9.194;2024-02-26T11:36:36;15.30;50.10
4245;DHT22;2136;48.502;9.194;2024-02-26T11:39:04;15.30;50.10
4245;DHT22;2136;48.502;9.194;2024-02-26T11:41:31;15.40;50.10
4245;DHT22;2136;48.502;9.194;2024-02-26T11:43:59;15.30;49.80
4245;DHT22;2136;48.502;9.194;2024-02-26T11:46:28;15.40;49.80
4245;DHT22;2136;48.502;9.194;2024-02-26T11:49:00;15.40;49.70
4245;DHT22;2136;48.502;9.194;2024-02-26T11:51:28;15.50;49.70
4245;DHT22;2136;48.502;9.194;2024-02-26T11:53:58;15.80;49.80
4245;DHT22;2136;48.502;9.194;2024-02-26T11:56:25;16.20;50.10
4245;DHT22;2136;48.502;9.194;2024-02-26T11:59:04;16.60;49.60
4245;DHT22;2136;48.502;9.194;2024-02-26T12:01:54;17.10;49.40
4245;DHT22;2136;48.502;9.194;2024-02-26T12:04:26;17.60;49.00
4245;DHT22;2136;48.502;9.194;2024-02-26T12:06:56;18.10;48.60
4245;DHT22;2136;48.502;9.194;2024-02-26T12:09:36;18.40;47.40
4245;DHT22;2136;48.502;9.194;2024-02-26T12:12:05;18.50;46.60
4245;DHT22;2136;48.502;9.194;2024-02-26T12:14:38;18.50;45.80
4245;DHT22;2136;48.502;9.194;2024-02-26T12:17:06;18.40;45.40
4245;DHT22;2136;48.502;9.194;2024-02-26T12:19:34;18.40;45.10
4245;DHT22;2136;48.502;9.194;2024-02-26T12:22:02;18.30;44.90
4245;DHT22;2136;48.502;9.194;2024-02-26T12:24:29;17.90;44.60
4245;DHT22;2136;48.502;9.194;2024-02-26T12:26:55;17.70;44.70
4245;DHT22;2136;48.502;9.194;2024-02-26T12:29:23;17.50;44.70
4245;DHT22;2136;48.502;9.194;2024-02-26T12:31:50;17.40;44.90
4245;DHT22;2136;48.502;9.194;2024-02-26T12:34:19;17.40;44.80
4245;DHT22;2136;48.502;9.194;2024-02-26T12:36:45;17.30;45.20
4245;DHT22;2136;48.502;9.194;2024-02-26T12:39:12;17.40;45.60
4245;DHT22;2136;48.502;9.194;2024-02-26T12:41:41;17.50;46.00
4245;DHT22;2136;48.502;9.194;2024-02-26T12:44:14;17.60;45.70
4245;DHT22;2136;48.502;9.194;2024-02-26T12:46:41;17.60;45.30
4245;DHT22;2136;48.502;9.194;2024-02-26T12:49:08;17.60;45.30
4245;DHT22;2136;48.502;9.194;2024-02-26T12:51:37;17.60;45.10
4245;DHT22;2136;48.502;9.194;2024-02-26T12:54:04;17.60;45.20
4245;DHT22;2136;48.502;9.194;2024-02-26T12:56:31;17.40;45.20
4245;DHT22;2136;48.502;9.194;2024-02-26T12:58:59;17.30;45.80
4245;DHT22;2136;48.502;9.194;2024-02-26T13:01:26;17.30;46.00
4245;DHT22;2136;48.502;9.194;2024-02-26T13:03:54;17.10;46.10
4245;DHT22;2136;48.502;9.194;2024-02-26T13:06:21;16.90;46.10
4245;DHT22;2136;48.502;9.194;2024-02-26T13:08:49;16.80;46.00
4245;DHT22;2136;48.502;9.194;2024-02-26T13:11:16;16.70;46.00
4245;DHT22;2136;48.502;9.194;2024-02-26T13:13:47;16.50;46.10
4245;DHT22;2136;48.502;9.194;2024-02-26T13:16:15;16.30;47.00
4245;DHT22;2136;48.502;9.194;2024-02-26T13:18:42;16.30;47.20
4245;DHT22;2136;48.502;9.194;2024-02-26T13:21:12;16.30;47.10
4245;DHT22;2136;48.502;9.194;2024-02-26T13:23:40;16.30;47.40
4245;DHT22;2136;48.502;9.194;2024-02-26T13:26:11;16.30;47.40
4245;DHT22;2136;48.502;9.194;2024-02-26T13:28:38;16.30;47.50
4245;DHT22;2136;48.502;9.194;2024-02-26T13:31:05;16.30;47.50
4245;DHT22;2136;48.502;9.194;2024-02-26T13:33:33;16.30;47.60
4245;DHT22;2136;48.502;9.194;2024-02-26T13:36:00;16.30;47.50
4245;DHT22;2136;48.502;9.194;2024-02-26T13:38:27;16.30;47.50
4245;DHT22;2136;48.502;9.194;2024-02-26T13:40:55;16.40;47.80
4245;DHT22;2136;48.502;9.194;2024-02-26T13:43:23;16.40;47.60
4245;DHT22;2136;48.502;9.194;2024-02-26T13:45:50;16.40;47.40
4245;DHT22;2136;48.502;9.194;2024-02-26T13:48:17;16.50;47.50
4245;DHT22;2136;48.502;9.194;2024-02-26T13:50:44;16.60;47.30
4245;DHT22;2136;48.502;9.194;2024-02-26T13:53:12;16.70;47.40
4245;DHT22;2136;48.502;9.194;2024-02-26T13:55:40;16.80;47.70
4245;DHT22;2136;48.502;9.194;2024-02-26T13:58:08;16.90;47.60
4245;DHT22;2136;48.502;9.194;2024-02-26T14:00:39;17.10;47.50
4245;DHT22;2136;48.502;9.194;2024-02-26T14:03:07;17.30;47.30
4245;DHT22;2136;48.502;9.194;2024-02-26T14:05:34;17.40;47.00
4245;DHT22;2136;48.502;9.194;2024-02-26T14:08:02;17.50;46.80
4245;DHT22;2136;48.502;9.194;2024-02-26T14:10:29;17.80;46.90
4245;DHT22;2136;48.502;9.194;2024-02-26T14:12:57;17.90;45.80
4245;DHT22;2136;48.502;9.194;2024-02-26T14:15:24;18.10;46.30
4245;DHT22;2136;48.502;9.194;2024-02-26T14:17:52;18.40;45.60
4245;DHT22;2136;48.502;9.194;2024-02-26T14:20:21;18.90;45.20
4245;DHT22;2136;48.502;9.194;2024-02-26T14:22:49;19.60;44.80
4245;DHT22;2136;48.502;9.194;2024-02-26T14:25:16;20.10;43.90
4245;DHT22;2136;48.502;9.194;2024-02-26T14:27:42;20.30;43.40
4245;DHT22;2136;48.502;9.194;2024-02-26T14:30:10;20.20;42.90
4245;DHT22;2136;48.502;9.194;2024-02-26T14:32:37;20.00;42.30
4245;DHT22;2136;48.502;9.194;2024-02-26T14:35:07;19.80;42.10
4245;DHT22;2136;48.502;9.194;2024-02-26T14:37:34;19.60;42.10
4245;DHT22;2136;48.502;9.194;2024-02-26T14:40:01;19.30;42.20
4245;DHT22;2136;48.502;9.194;2024-02-26T14:42:29;19.00;42.00
4245;DHT22;2136;48.502;9.194;2024-02-26T14:44:55;18.70;41.60
4245;DHT22;2136;48.502;9.194;2024-02-26T14:47:22;18.50;41.80
4245;DHT22;2136;48.502;9.194;2024-02-26T14:49:49;18.30;42.10
4245;DHT22;2136;48.502;9.194;2024-02-26T14:52:18;18.00;41.20
4245;DHT22;2136;48.502;9.194;2024-02-26T14:54:45;17.70;40.00
4245;DHT22;2136;48.502;9.194;2024-02-26T14:57:12;17.50;39.90
4245;DHT22;2136;48.502;9.194;2024-02-26T14:59:39;17.30;40.20
4245;DHT22;2136;48.502;9.194;2024-02-26T15:02:06;17.10;40.40
4245;DHT22;2136;48.502;9.194;2024-02-26T15:04:35;17.00;40.30
4245;DHT22;2136;48.502;9.194;2024-02-26T15:07:02;16.80;40.30
4245;DHT22;2136;48.502;9.194;2024-02-26T15:09:30;16.70;40.40
4245;DHT22;2136;48.502;9.194;2024-02-26T15:11:57;16.50;40.30
4245;DHT22;2136;48.502;9.194;2024-02-26T15:14:24;16.40;40.60
4245;DHT22;2136;48.502;9.194;2024-02-26T15:16:51;16.20;40.90
4245;DHT22;2136;48.502;9.194;2024-02-26T15:19:18;16.10;41.30
4245;DHT22;2136;48.502;9.194;2024-02-26T15:21:45;16.00;41.70
4245;DHT22;2136;48.502;9.194;2024-02-26T15:24:12;15.90;42.10
4245;DHT22;2136;48.502;9.194;2024-02-26T15:26:43;15.80;42.60
4245;DHT22;2136;48.502;9.194;2024-02-26T15:29:10;15.70;42.70
4245;DHT22;2136;48.502;9.194;2024-02-26T15:31:37;15.60;42.70
4245;DHT22;2136;48.502;9.194;2024-02-26T15:34:04;15.50;42.90
4245;DHT22;2136;48.502;9.194;2024-02-26T15:36:30;15.50;42.80
4245;DHT22;2136;48.502;9.194;2024-02-26T15:38:57;15.30;43.20
4245;DHT22;2136;48.502;9.194;2024-02-26T15:41:24;15.30;43.40
4245;DHT22;2136;48.502;9.194;2024-02-26T15:43:52;15.20;43.60
4245;DHT22;2136;48.502;9.194;2024-02-26T15:46:19;15.20;44.00
4245;DHT22;2136;48.502;9.194;2024-02-26T15:48:46;15.10;44.10
4245;DHT22;2136;48.502;9.194;2024-02-26T15:51:20;15.00;44.50
4245;DHT22;2136;48.502;9.194;2024-02-26T15:53:47;15.00;44.90
4245;DHT22;2136;48.502;9.194;2024-02-26T15:56:15;14.90;44.80
4245;DHT22;2136;48.502;9.194;2024-02-26T15:58:42;14.90;44.60
4245;DHT22;2136;48.502;9.194;2024-02-26T16:01:10;14.80;44.60
4245;DHT22;2136;48.502;9.194;2024-02-26T16:03:37;14.80;45.50
4245;DHT22;2136;48.502;9.194;2024-02-26T16:06:05;14.70;45.30
4245;DHT22;2136;48.502;9.194;2024-02-26T16:08:32;14.70;45.20
4245;DHT22;2136;48.502;9.194;2024-02-26T16:11:00;14.70;45.50